createdAt,value
2023-04-22T00:00:58.748Z,4.80
2023-04-22T00:03:27.842Z,4.28
2023-04-22T00:05:56.057Z,4.15
2023-04-22T00:08:24.113Z,4.47
2023-04-22T00:10:52.162Z,4.85
2023-04-22T00:13:20.379Z,4.57
2023-04-22T00:15:48.653Z,4.60
2023-04-22T00:18:19.083Z,4.65
2023-04-22T00:20:47.026Z,4.57
2023-04-22T00:23:16.658Z,3.85
2023-04-22T00:25:45.114Z,4.78
2023-04-22T00:28:13.171Z,4.63
2023-04-22T00:30:41.352Z,4.13
2023-04-22T00:33:09.487Z,4.15
2023-04-22T00:35:38.992Z,3.95
2023-04-22T00:38:07.084Z,4.88
2023-04-22T00:40:39.068Z,4.40
2023-04-22T00:43:07.410Z,3.42
2023-04-22T00:45:37.549Z,3.83
2023-04-22T00:48:06.082Z,4.40
2023-04-22T00:50:34.085Z,4.05
2023-04-22T00:53:03.790Z,4.00
2023-04-22T00:55:31.808Z,4.03
2023-04-22T00:58:01.906Z,4.65
2023-04-22T01:00:30.150Z,4.45
2023-04-22T01:02:58.977Z,4.03
2023-04-22T01:05:28.078Z,4.10
2023-04-22T01:07:56.326Z,3.95
2023-04-22T01:10:26.835Z,4.47
2023-04-22T01:12:55.248Z,5.10
2023-04-22T01:15:24.865Z,4.90
2023-04-22T01:17:54.692Z,5.03
2023-04-22T01:20:23.769Z,4.78
2023-04-22T01:22:54.486Z,5.05
2023-04-22T01:25:24.100Z,5.38
2023-04-22T01:27:52.388Z,5.28
2023-04-22T01:30:20.693Z,6.10
2023-04-22T01:32:48.960Z,5.85
2023-04-22T01:35:16.898Z,5.35
2023-04-22T01:37:45.697Z,5.00
2023-04-22T01:40:15.371Z,5.20
2023-04-22T01:42:44.791Z,5.50
2023-04-22T01:45:13.160Z,5.38
2023-04-22T01:47:41.045Z,5.47
2023-04-22T01:50:10.238Z,5.25
2023-04-22T01:52:38.288Z,5.15
2023-04-22T01:55:07.563Z,5.30
2023-04-22T01:57:35.697Z,5.47
2023-04-22T02:00:06.647Z,6.20
2023-04-22T02:02:35.113Z,5.80
2023-04-22T02:05:03.510Z,5.97
2023-04-22T02:07:31.542Z,5.70
2023-04-22T02:09:59.734Z,5.82
2023-04-22T02:12:28.663Z,5.63
2023-04-22T02:14:57.041Z,5.75
2023-04-22T02:17:26.481Z,5.40
2023-04-22T02:19:54.584Z,5.57
2023-04-22T02:22:23.153Z,5.60
2023-04-22T02:24:51.394Z,5.18
2023-04-22T02:27:19.368Z,5.50
2023-04-22T02:29:47.369Z,5.38
2023-04-22T02:32:17.418Z,4.80
2023-04-22T02:34:47.209Z,5.70
2023-04-22T02:37:15.534Z,5.15
2023-04-22T02:39:43.501Z,5.30
2023-04-22T02:42:11.380Z,5.10
2023-04-22T02:44:39.338Z,5.13
2023-04-22T02:47:08.701Z,4.78
2023-04-22T02:49:37.098Z,4.85
2023-04-22T02:52:06.924Z,5.10
2023-04-22T02:54:35.257Z,5.05
2023-04-22T02:57:03.498Z,5.03
2023-04-22T02:59:32.670Z,5.00
2023-04-22T03:02:00.854Z,5.07
2023-04-22T03:04:28.961Z,5.43
2023-04-22T03:06:57.687Z,4.43
2023-04-22T03:09:27.081Z,4.75
2023-04-22T03:11:57.129Z,5.00
2023-04-22T03:14:25.246Z,4.85
2023-04-22T03:16:53.488Z,4.25
2023-04-22T03:19:22.061Z,4.97
2023-04-22T03:21:50.197Z,4.90
2023-04-22T03:24:18.883Z,4.82
2023-04-22T03:26:48.410Z,4.88
2023-04-22T03:29:16.296Z,4.55
2023-04-22T03:31:44.929Z,4.20
2023-04-22T03:34:12.922Z,4.18
2023-04-22T03:36:41.516Z,4.63
2023-04-22T03:39:09.949Z,4.53
2023-04-22T03:41:37.993Z,4.07
2023-04-22T03:44:07.439Z,4.45
2023-04-22T03:46:35.561Z,4.38
2023-04-22T03:49:04.198Z,4.93
2023-04-22T03:51:32.266Z,5.07
2023-04-22T03:54:01.513Z,4.32
2023-04-22T03:56:29.560Z,4.97
2023-04-22T03:58:57.982Z,5.75
2023-04-22T04:01:27.854Z,4.93
2023-04-22T04:03:56.515Z,5.05
2023-04-22T04:06:24.826Z,4.43
2023-04-22T04:08:52.698Z,4.55
2023-04-22T04:11:21.127Z,5.15
2023-04-22T04:13:49.170Z,4.68
2023-04-22T04:16:17.639Z,4.90
2023-04-22T04:18:47.026Z,7.40
2023-04-22T04:21:15.208Z,9.45
2023-04-22T04:23:43.525Z,8.60
2023-04-22T04:26:11.808Z,6.95
2023-04-22T04:28:41.720Z,5.75
2023-04-22T04:31:09.827Z,6.97
2023-04-22T04:33:38.175Z,6.10
2023-04-22T04:36:08.955Z,5.95
2023-04-22T04:38:37.378Z,6.60
2023-04-22T04:41:05.734Z,6.15
2023-04-22T04:43:33.759Z,6.50
2023-04-22T04:46:01.964Z,7.25
2023-04-22T04:48:29.967Z,6.35
2023-04-22T04:50:58.996Z,6.70
2023-04-22T04:53:28.782Z,6.25
2023-04-22T04:55:57.124Z,7.15
2023-04-22T04:58:25.469Z,6.57
2023-04-22T05:00:53.675Z,5.35
2023-04-22T05:03:21.977Z,5.35
2023-04-22T05:05:50.273Z,4.78
2023-04-22T05:08:18.173Z,4.97
2023-04-22T05:10:47.515Z,4.93
2023-04-22T05:13:15.522Z,5.72
2023-04-22T05:15:43.825Z,6.18
2023-04-22T05:18:11.699Z,4.93
2023-04-22T05:20:40.474Z,4.88
2023-04-22T05:23:08.658Z,4.20
2023-04-22T05:25:36.764Z,5.18
2023-04-22T05:28:06.207Z,5.15
2023-04-22T05:30:34.133Z,4.43
2023-04-22T05:33:02.689Z,4.82
2023-04-22T05:35:31.003Z,6.70
2023-04-22T05:37:59.113Z,6.60
2023-04-22T05:40:27.345Z,6.35
2023-04-22T05:42:55.350Z,5.95
2023-04-22T05:45:25.113Z,5.75
2023-04-22T05:47:53.420Z,5.38
2023-04-22T05:50:23.340Z,5.57
2023-04-22T05:52:51.876Z,7.30
2023-04-22T05:55:19.922Z,7.70
2023-04-22T05:57:47.859Z,10.05
2023-04-22T06:00:17.156Z,7.55
2023-04-22T06:02:46.668Z,7.90
2023-04-22T06:05:15.630Z,6.78
2023-04-22T06:07:44.084Z,7.03
2023-04-22T06:10:12.214Z,7.43
2023-04-22T06:12:40.793Z,7.63
2023-04-22T06:15:09.552Z,8.18
2023-04-22T06:17:38.084Z,8.65
2023-04-22T06:20:09.021Z,8.07
2023-04-22T06:22:37.846Z,6.15
2023-04-22T06:25:07.143Z,7.03
2023-04-22T06:27:35.539Z,5.93
2023-04-22T06:30:03.426Z,5.57
2023-04-22T06:32:31.813Z,4.85
2023-04-22T06:34:59.744Z,5.43
2023-04-22T06:37:29.071Z,5.35
2023-04-22T06:39:57.300Z,5.22
2023-04-22T06:42:25.606Z,4.55
2023-04-22T06:44:53.533Z,4.97
2023-04-22T06:47:21.671Z,4.28
2023-04-22T06:49:50.390Z,4.43
2023-04-22T06:52:18.405Z,4.60
2023-04-22T06:54:47.939Z,4.47
2023-04-22T06:57:16.290Z,4.10
2023-04-22T06:59:46.699Z,4.40
2023-04-22T07:02:15.260Z,5.00
2023-04-22T07:04:43.585Z,4.05
2023-04-22T07:07:11.595Z,3.90
2023-04-22T07:09:40.310Z,3.95
2023-04-22T07:12:10.270Z,4.43
2023-04-22T07:14:39.117Z,4.20
2023-04-22T07:17:07.102Z,4.55
2023-04-22T07:19:35.439Z,4.47
2023-04-22T07:22:04.574Z,4.78
2023-04-22T07:24:32.936Z,4.15
2023-04-22T07:27:01.448Z,4.85
2023-04-22T07:29:30.743Z,4.25
2023-04-22T07:31:58.820Z,4.97
2023-04-22T07:34:27.111Z,4.70
2023-04-22T07:36:55.297Z,5.22
2023-04-22T07:39:24.010Z,4.53
2023-04-22T07:41:53.341Z,3.85
2023-04-22T07:44:22.347Z,5.10
2023-04-22T07:46:51.964Z,4.90
2023-04-22T07:49:19.926Z,5.13
2023-04-22T07:51:47.829Z,5.00
2023-04-22T07:54:15.797Z,4.82
2023-04-22T07:56:44.078Z,4.90
2023-04-22T07:59:12.122Z,5.30
2023-04-22T08:01:40.032Z,4.65
2023-04-22T08:04:10.362Z,5.13
2023-04-22T08:06:38.650Z,4.63
2023-04-22T08:09:07.402Z,5.00
2023-04-22T08:11:35.479Z,5.03
2023-04-22T08:14:03.479Z,4.68
2023-04-22T08:16:31.540Z,5.30
2023-04-22T08:18:59.631Z,5.03
2023-04-22T08:21:29.179Z,5.20
2023-04-22T08:23:57.547Z,5.63
2023-04-22T08:26:26.464Z,5.90
2023-04-22T08:28:54.837Z,5.07
2023-04-22T08:31:22.984Z,5.82
2023-04-22T08:33:52.206Z,5.03
2023-04-22T08:36:22.925Z,5.07
2023-04-22T08:38:54.968Z,4.65
2023-04-22T08:41:24.551Z,5.45
2023-04-22T08:43:54.434Z,5.15
2023-04-22T08:46:24.141Z,5.05
2023-04-22T08:48:55.486Z,4.93
2023-04-22T08:51:25.795Z,5.03
2023-04-22T08:53:55.370Z,4.70
2023-04-22T08:56:23.773Z,5.13
2023-04-22T08:58:53.205Z,4.75
2023-04-22T09:01:22.496Z,4.40
2023-04-22T09:03:53.059Z,4.38
2023-04-22T09:06:23.861Z,4.80
2023-04-22T09:08:53.765Z,4.18
2023-04-22T09:11:25.596Z,4.55
2023-04-22T09:13:55.692Z,4.10
2023-04-22T09:16:24.003Z,4.07
2023-04-22T09:18:52.244Z,4.25
2023-04-22T09:21:20.883Z,3.70
2023-04-22T09:23:51.150Z,4.00
2023-04-22T09:26:23.804Z,4.45
2023-04-22T09:28:52.232Z,4.70
2023-04-22T09:31:23.255Z,3.78
2023-04-22T09:33:53.291Z,4.75
2023-04-22T09:36:24.597Z,3.95
2023-04-22T09:38:57.222Z,4.30
2023-04-22T09:41:34.201Z,3.38
2023-04-22T09:44:03.876Z,3.80
2023-04-22T09:46:33.753Z,3.75
2023-04-22T09:49:02.625Z,3.25
2023-04-22T09:51:32.057Z,3.40
2023-04-22T09:54:01.619Z,3.35
2023-04-22T09:56:49.429Z,3.58
2023-04-22T09:59:22.835Z,3.38
2023-04-22T10:01:55.526Z,2.92
2023-04-22T10:04:26.127Z,3.35
2023-04-22T10:06:55.043Z,2.75
2023-04-22T10:09:31.540Z,3.00
2023-04-22T10:12:01.319Z,2.85
2023-04-22T10:14:29.836Z,2.80
2023-04-22T10:17:03.089Z,2.85
2023-04-22T10:19:34.270Z,2.90
2023-04-22T10:22:06.201Z,3.20
2023-04-22T10:24:39.118Z,3.90
2023-04-22T10:29:39.648Z,3.00
2023-04-22T10:32:26.127Z,3.50
2023-04-22T10:35:10.109Z,2.67
2023-04-22T10:37:39.111Z,3.20
2023-04-22T10:40:09.721Z,2.55
2023-04-22T10:42:41.699Z,2.88
2023-04-22T10:45:15.658Z,2.57
2023-04-22T10:47:45.492Z,3.17
2023-04-22T10:50:19.342Z,2.90
2023-04-22T10:52:50.756Z,2.67
2023-04-22T10:55:19.089Z,2.65
2023-04-22T10:57:52.905Z,2.58
2023-04-22T11:00:45.871Z,2.97
2023-04-22T11:03:28.107Z,2.92
2023-04-22T11:06:14.672Z,2.40
2023-04-22T11:08:47.714Z,2.63
2023-04-22T11:11:19.252Z,2.53
2023-04-22T11:13:52.132Z,2.47
2023-04-22T11:16:23.516Z,2.33
2023-04-22T11:18:52.414Z,2.47
2023-04-22T11:21:22.380Z,2.30
2023-04-22T11:23:54.605Z,2.47
2023-04-22T11:26:36.299Z,2.50
2023-04-22T11:29:06.017Z,2.20
2023-04-22T11:31:35.040Z,2.03
2023-04-22T11:34:03.288Z,2.03
2023-04-22T11:36:31.632Z,1.50
2023-04-22T11:39:00.000Z,1.50
2023-04-22T11:41:30.118Z,2.00
2023-04-22T11:44:00.527Z,1.60
2023-04-22T11:46:38.786Z,1.80
2023-04-22T11:49:14.749Z,1.67
2023-04-22T11:51:56.475Z,1.50
2023-04-22T11:54:37.454Z,1.63
2023-04-22T11:57:07.024Z,2.28
2023-04-22T11:59:37.102Z,1.92
2023-04-22T12:02:08.339Z,1.80
2023-04-22T12:04:41.643Z,1.77
2023-04-22T12:07:09.941Z,1.83
2023-04-22T12:09:38.397Z,1.90
2023-04-22T12:12:09.080Z,2.05
2023-04-22T12:14:39.353Z,2.67
2023-04-22T12:17:13.415Z,1.98
2023-04-22T12:19:41.966Z,2.55
2023-04-22T12:22:10.051Z,2.65
2023-04-22T12:24:38.563Z,2.20
2023-04-22T12:27:06.420Z,2.50
2023-04-22T12:29:35.732Z,2.22
2023-04-22T12:32:05.122Z,2.30
2023-04-22T12:34:34.524Z,2.22
2023-04-22T12:37:03.383Z,2.10
2023-04-22T12:39:32.270Z,2.20
2023-04-22T12:42:02.373Z,1.65
2023-04-22T12:44:30.477Z,1.90
2023-04-22T12:46:58.771Z,1.83
2023-04-22T12:49:27.159Z,1.67
2023-04-22T12:51:57.011Z,1.90
2023-04-22T12:54:26.439Z,2.35
2023-04-22T12:56:54.739Z,1.90
2023-04-22T12:59:22.668Z,2.45
2023-04-22T13:01:50.712Z,3.67
2023-04-22T13:04:21.023Z,2.20
2023-04-22T13:06:50.538Z,2.20
2023-04-22T13:09:20.008Z,1.85
2023-04-22T13:11:49.251Z,1.95
2023-04-22T13:14:17.373Z,1.90
2023-04-22T13:16:45.657Z,1.80
2023-04-22T13:19:16.236Z,2.08
2023-04-22T13:21:45.124Z,1.77
2023-04-22T13:24:13.940Z,2.15
2023-04-22T13:26:45.606Z,1.50
2023-04-22T13:29:15.533Z,1.50
2023-04-22T13:31:44.863Z,2.10
2023-04-22T13:34:13.611Z,1.40
2023-04-22T13:36:44.296Z,1.90
2023-04-22T13:39:13.893Z,1.70
2023-04-22T13:41:45.989Z,1.40
2023-04-22T13:44:17.468Z,1.92
2023-04-22T13:46:45.491Z,1.60
2023-04-22T13:49:16.462Z,1.20
2023-04-22T13:51:44.455Z,2.10
2023-04-22T13:54:13.186Z,1.58
2023-04-22T13:56:41.477Z,1.85
2023-04-22T13:59:15.877Z,2.60
2023-04-22T14:01:47.522Z,1.52
2023-04-22T14:04:15.866Z,2.13
2023-04-22T14:06:46.662Z,1.80
2023-04-22T14:09:18.122Z,1.70
2023-04-22T14:11:45.995Z,1.60
2023-04-22T14:14:15.490Z,1.85
2023-04-22T14:16:43.537Z,1.45
2023-04-22T14:19:11.743Z,1.60
2023-04-22T14:21:39.602Z,1.55
2023-04-22T14:24:10.133Z,1.90
2023-04-22T14:26:38.370Z,1.65
2023-04-22T14:29:06.375Z,1.48
2023-04-22T14:31:36.954Z,1.40
2023-04-22T14:34:04.960Z,1.55
2023-04-22T14:36:33.754Z,1.80
2023-04-22T14:39:01.751Z,1.95
2023-04-22T14:41:29.891Z,1.58
2023-04-22T14:43:58.338Z,1.67
2023-04-22T14:46:27.970Z,2.10
2023-04-22T14:48:57.485Z,1.60
2023-04-22T14:51:25.831Z,1.30
2023-04-22T14:53:54.073Z,1.80
2023-04-22T14:56:24.271Z,1.42
2023-04-22T14:58:52.237Z,1.88
2023-04-22T15:01:21.533Z,1.50
2023-04-22T15:03:51.523Z,1.40
2023-04-22T15:06:21.055Z,1.65
2023-04-22T15:08:51.916Z,1.60
2023-04-22T15:11:20.247Z,1.55
2023-04-22T15:13:48.442Z,1.85
2023-04-22T15:16:16.862Z,1.67
2023-04-22T15:18:44.982Z,3.08
2023-04-22T15:21:12.945Z,1.70
2023-04-22T15:23:42.466Z,1.67
2023-04-22T15:26:10.411Z,1.70
2023-04-22T15:28:38.322Z,2.50
2023-04-22T15:31:06.661Z,1.70
2023-04-22T15:33:35.002Z,1.83
2023-04-22T15:36:04.207Z,1.98
2023-04-22T15:38:32.274Z,1.83
2023-04-22T15:41:01.932Z,1.65
2023-04-22T15:43:30.651Z,1.50
2023-04-22T15:45:59.837Z,1.42
2023-04-22T15:48:27.837Z,1.40
2023-04-22T15:50:57.687Z,1.35
2023-04-22T15:53:26.060Z,1.55
2023-04-22T15:55:58.063Z,1.83
2023-04-22T15:58:30.568Z,1.42
2023-04-22T16:01:15.438Z,1.45
2023-04-22T16:03:46.734Z,1.95
2023-04-22T16:06:14.838Z,1.75
2023-04-22T16:08:43.928Z,1.73
2023-04-22T16:11:12.118Z,1.50
2023-04-22T16:13:41.928Z,1.70
2023-04-22T16:16:10.391Z,1.30
2023-04-22T16:18:39.059Z,1.67
2023-04-22T16:21:08.289Z,1.70
2023-04-22T16:23:37.324Z,1.90
2023-04-22T16:26:09.055Z,1.77
2023-04-22T16:28:37.238Z,1.85
2023-04-22T16:31:08.873Z,1.42
2023-04-22T16:33:37.250Z,1.73
2023-04-22T16:36:05.884Z,1.58
2023-04-22T16:38:33.931Z,1.65
2023-04-22T16:41:02.507Z,1.70
2023-04-22T16:43:30.640Z,1.95
2023-04-22T16:46:00.518Z,1.73
2023-04-22T16:48:30.295Z,2.03
2023-04-22T16:50:58.469Z,1.80
2023-04-22T16:53:28.514Z,1.80
2023-04-22T16:55:58.074Z,1.65
2023-04-22T16:58:27.256Z,1.58
2023-04-22T17:00:56.365Z,2.05
2023-04-22T17:03:24.449Z,1.70
2023-04-22T17:05:55.093Z,1.85
2023-04-22T17:08:23.637Z,1.70
2023-04-22T17:10:52.492Z,2.00
2023-04-22T17:13:20.924Z,1.45
2023-04-22T17:15:49.220Z,1.73
2023-04-22T17:18:17.172Z,2.13
2023-04-22T17:20:47.391Z,1.77
2023-04-22T17:23:16.841Z,2.28
2023-04-22T17:25:46.884Z,2.10
2023-04-22T17:28:16.165Z,1.65
2023-04-22T17:30:44.570Z,2.13
2023-04-22T17:33:13.709Z,1.77
2023-04-22T17:35:41.908Z,1.77
2023-04-22T17:38:09.814Z,2.22
2023-04-22T17:40:39.523Z,1.95
2023-04-22T17:43:07.722Z,1.70
2023-04-22T17:45:38.469Z,1.73
2023-04-22T17:48:06.604Z,2.22
2023-04-22T17:50:34.939Z,1.70
2023-04-22T17:53:04.061Z,2.03
2023-04-22T17:55:35.245Z,2.20
2023-04-22T17:58:05.320Z,1.67
2023-04-22T18:00:34.339Z,2.00
2023-04-22T18:03:03.063Z,2.00
2023-04-22T18:05:33.126Z,2.15
2023-04-22T18:08:03.090Z,1.88
2023-04-22T18:10:32.075Z,1.95
2023-04-22T18:13:00.714Z,1.95
2023-04-22T18:15:30.329Z,3.15
2023-04-22T18:17:58.505Z,2.25
2023-04-22T18:20:26.889Z,2.00
2023-04-22T18:22:56.593Z,2.03
2023-04-22T18:25:25.905Z,2.35
2023-04-22T18:27:55.219Z,2.28
2023-04-22T18:30:23.449Z,3.20
2023-04-22T18:32:53.839Z,2.70
2023-04-22T18:35:23.067Z,3.85
2023-04-22T18:37:51.588Z,2.63
2023-04-22T18:40:21.070Z,2.05
2023-04-22T18:42:49.098Z,2.33
2023-04-22T18:45:17.080Z,2.30
2023-04-22T18:47:45.754Z,2.58
2023-04-22T18:50:15.336Z,2.22
2023-04-22T18:52:43.653Z,2.30
2023-04-22T18:55:11.833Z,2.47
2023-04-22T18:57:39.883Z,2.53
2023-04-22T19:00:09.729Z,2.05
2023-04-22T19:02:41.435Z,2.50
2023-04-22T19:05:12.119Z,2.97
2023-04-22T19:07:44.366Z,2.70
2023-04-22T19:12:41.676Z,2.80
2023-04-22T19:15:10.784Z,2.80
2023-04-22T19:17:39.149Z,2.70
2023-04-22T19:20:11.782Z,2.45
2023-04-22T19:22:41.219Z,2.60
2023-04-22T19:25:11.349Z,2.10
2023-04-22T19:27:39.730Z,2.60
2023-04-22T19:30:09.382Z,1.92
2023-04-22T19:32:38.050Z,2.50
2023-04-22T19:35:09.167Z,2.22
2023-04-22T19:37:37.455Z,2.45
2023-04-22T19:40:08.451Z,2.38
2023-04-22T19:42:36.536Z,2.72
2023-04-22T19:45:05.308Z,2.47
2023-04-22T19:47:34.299Z,2.42
2023-04-22T19:50:03.918Z,2.20
2023-04-22T19:52:34.258Z,2.83
2023-04-22T19:55:09.657Z,3.13
2023-04-22T19:57:42.682Z,2.50
2023-04-22T20:02:42.292Z,2.75
2023-04-22T20:05:11.337Z,2.20
2023-04-22T20:07:41.028Z,2.90
2023-04-22T20:10:09.952Z,2.55
2023-04-22T20:12:40.119Z,2.30
2023-04-22T20:15:12.840Z,2.10
2023-04-22T20:17:41.469Z,1.85
2023-04-22T20:20:14.993Z,2.30
2023-04-22T20:22:44.612Z,2.20
2023-04-22T20:25:14.259Z,1.83
2023-04-22T20:27:44.515Z,2.00
2023-04-22T20:30:14.667Z,2.10
2023-04-22T20:32:43.324Z,2.42
2023-04-22T20:35:14.894Z,2.10
2023-04-22T20:37:43.682Z,2.08
2023-04-22T20:40:16.213Z,2.00
2023-04-22T20:42:46.671Z,2.40
2023-04-22T20:45:15.797Z,1.80
2023-04-22T20:47:44.536Z,2.20
2023-04-22T20:50:15.810Z,2.08
2023-04-22T20:52:43.784Z,1.90
2023-04-22T20:55:14.360Z,2.50
2023-04-22T20:57:42.355Z,2.30
2023-04-22T21:00:12.828Z,2.50
2023-04-22T21:02:41.526Z,2.42
2023-04-22T21:05:12.495Z,2.17
2023-04-22T21:07:41.584Z,1.90
2023-04-22T21:10:11.118Z,1.95
2023-04-22T21:12:39.881Z,2.03
2023-04-22T21:15:12.277Z,2.17
2023-04-22T21:17:44.586Z,1.90
2023-04-22T21:20:13.700Z,2.20
2023-04-22T21:22:43.892Z,2.17
2023-04-22T21:25:16.109Z,1.83
2023-04-22T21:27:44.656Z,1.88
2023-04-22T21:30:16.551Z,1.83
2023-04-22T21:32:45.558Z,1.90
2023-04-22T21:35:13.915Z,2.10
2023-04-22T21:37:41.978Z,1.90
2023-04-22T21:40:13.690Z,1.77
2023-04-22T21:42:41.698Z,2.00
2023-04-22T21:45:10.644Z,1.77
2023-04-22T21:47:39.998Z,2.60
2023-04-22T21:50:08.796Z,2.20
2023-04-22T21:52:37.439Z,1.80
2023-04-22T21:55:06.063Z,2.35
2023-04-22T21:57:34.574Z,2.10
2023-04-22T22:00:02.591Z,2.13
2023-04-22T22:02:30.954Z,2.28
2023-04-22T22:05:02.370Z,1.88
2023-04-22T22:07:30.537Z,1.92
2023-04-22T22:09:58.565Z,1.95
2023-04-22T22:12:30.185Z,2.97
2023-04-22T22:14:58.455Z,2.60
2023-04-22T22:17:28.095Z,2.05
2023-04-22T22:19:57.721Z,2.47
2023-04-22T22:22:27.236Z,2.50
2023-04-22T22:24:55.741Z,2.13
2023-04-22T22:27:23.966Z,2.22
2023-04-22T22:29:51.932Z,2.38
2023-04-22T22:32:20.215Z,1.77
2023-04-22T22:34:48.235Z,2.38
2023-04-22T22:37:17.379Z,2.58
2023-04-22T22:39:46.766Z,2.30
2023-04-22T22:42:14.802Z,3.08
2023-04-22T22:44:43.282Z,2.42
2023-04-22T22:47:12.058Z,2.78
2023-04-22T22:49:41.152Z,2.53
2023-04-22T22:52:09.262Z,2.70
2023-04-22T22:54:39.398Z,2.17
2023-04-22T22:57:09.513Z,2.38
2023-04-22T22:59:39.254Z,3.05
2023-04-22T23:02:07.850Z,2.55
2023-04-22T23:04:37.660Z,2.42
2023-04-22T23:07:06.147Z,2.50
2023-04-22T23:09:34.102Z,2.60
2023-04-22T23:12:02.588Z,2.60
2023-04-22T23:14:33.398Z,2.10
2023-04-22T23:17:01.505Z,2.70
2023-04-22T23:19:30.357Z,2.92
2023-04-22T23:21:59.661Z,2.20
2023-04-22T23:24:28.494Z,2.55
2023-04-22T23:26:57.299Z,2.53
2023-04-22T23:29:26.281Z,2.28
2023-04-22T23:31:58.030Z,2.60
2023-04-22T23:34:26.690Z,2.58
2023-04-22T23:36:58.936Z,2.80
2023-04-22T23:39:26.935Z,3.00
2023-04-22T23:41:54.826Z,2.50
2023-04-22T23:44:23.484Z,2.63
2023-04-22T23:46:52.190Z,2.90
2023-04-22T23:49:21.901Z,2.60
2023-04-22T23:51:50.904Z,4.13
2023-04-22T23:54:19.239Z,2.75
2023-04-22T23:56:48.608Z,3.33
2023-04-22T23:59:17.568Z,2.78
